Country
Station

 

Weather  for  Khon Kaen  -  Thailand    Thailand

  
25 °C (77 °F)
    
 
 

Current METAR for Khon Kaen is :

VTUK 191500Z VRB02KT 9000 NSC 25/25 Q1011 NOSIG

 

This is a report for Khon Kaen - Thailand.
 
The report was made 40 minutes ago, at 15:00 UTC .
The wind was blowing at a speed of 1.0 meters per second (2.3 miles per hour) from variable directions.
 
The temperature was 25 °C (77 °F), with a dew-point at 25 °C (77 °F).
The temperature felt like 26 °C (78 °F).
 
The atmospheric pressure was 1011 hPa (29.85 inHg).
The relative humidity was 100.0%.
 
The overall visibility was 9.0 kilometers (5.6 miles).
 

 
 
 
 

Country :   A   B   C   D   E   F   G   H   I   J   K   L   M   N   O   P   Q   R   S   T   U   V   W   Y   Z

 

Site Info  |  Disclaimer  |  Credits  |  Privacy
Contact us  |  Add to favorites
© 2013-2018 METARs - All rights reserved